Time;durP1;ratioP1;P1;durP2;ratioP2;P2;SDS_P1;SDS_P2;PMS_P1;PMS_P2;Temp;Humidity;BMP_temperature;BMP_pressure;BME280_temperature;BME280_humidity;BME280_pressure;Samples;Min_cycle;Max_cycle;Signal;HPM_P1;HPM_P2
2021/01/05 00:00:51;;;;;;;15.67;11.23;;;3.20;99.90;;;;;;5070357;28;20580;-75
2021/01/05 00:03:18;;;;;;;14.90;11.33;;;3.20;99.90;;;;;;5070823;28;20680;-77
2021/01/05 00:05:44;;;;;;;15.70;10.90;;;3.20;99.90;;;;;;5070489;28;20249;-72
2021/01/05 00:08:12;;;;;;;17.60;12.30;;;3.20;99.90;;;;;;5070991;28;20289;-73
2021/01/05 00:10:38;;;;;;;13.83;11.10;;;3.20;99.90;;;;;;5071115;28;20209;-79
2021/01/05 00:13:05;;;;;;;17.57;12.60;;;3.20;99.90;;;;;;5070269;28;20210;-78
2021/01/05 00:15:31;;;;;;;16.10;12.10;;;3.10;99.90;;;;;;5070976;28;20257;-76
2021/01/05 00:17:57;;;;;;;15.23;12.03;;;3.10;99.90;;;;;;5070258;28;20230;-74
2021/01/05 00:20:27;;;;;;;16.57;11.73;;;3.10;99.90;;;;;;5070527;28;20206;-76
2021/01/05 00:22:53;;;;;;;20.83;12.20;;;3.00;99.90;;;;;;5070103;28;20206;-78
2021/01/05 00:25:21;;;;;;;18.73;12.43;;;3.00;99.90;;;;;;5070710;28;20202;-77
2021/01/05 00:27:48;;;;;;;16.43;12.07;;;2.90;99.90;;;;;;5070414;28;20212;-78
2021/01/05 00:30:18;;;;;;;13.47;10.37;;;2.90;99.90;;;;;;5070793;28;20209;-74
2021/01/05 00:32:47;;;;;;;15.80;10.53;;;2.80;99.90;;;;;;5070445;28;20254;-79
2021/01/05 00:35:16;;;;;;;13.87;9.03;;;2.80;99.90;;;;;;5070078;28;20229;-72
2021/01/05 00:37:43;;;;;;;20.93;11.97;;;2.90;99.90;;;;;;5070233;28;20267;-78
2021/01/05 00:40:10;;;;;;;19.70;12.87;;;3.00;99.90;;;;;;5070140;28;20577;-73
2021/01/05 00:42:37;;;;;;;14.47;12.17;;;3.00;99.90;;;;;;5070244;28;20689;-74
2021/01/05 00:45:06;;;;;;;14.57;10.60;;;3.00;99.90;;;;;;5070063;28;20221;-76
2021/01/05 00:47:32;;;;;;;14.17;10.63;;;3.00;99.90;;;;;;5070310;28;20208;-76
2021/01/05 00:49:59;;;;;;;15.60;11.03;;;3.10;99.90;;;;;;5070261;28;20206;-73
2021/01/05 00:52:25;;;;;;;17.80;11.77;;;3.10;99.90;;;;;;5069856;28;20687;-76
2021/01/05 00:54:52;;;;;;;14.10;10.87;;;3.10;99.90;;;;;;5069897;28;20331;-75
2021/01/05 00:57:18;;;;;;;15.53;10.53;;;3.00;99.90;;;;;;5070222;28;20202;-75
2021/01/05 00:59:46;;;;;;;14.33;12.47;;;3.00;99.90;;;;;;5070406;28;20209;-73
2021/01/05 01:02:13;;;;;;;16.40;12.13;;;2.90;99.90;;;;;;5070707;28;20255;-75
2021/01/05 01:04:40;;;;;;;17.40;11.67;;;2.80;99.90;;;;;;5070466;28;20681;-75
2021/01/05 01:07:07;;;;;;;16.17;12.07;;;2.80;99.90;;;;;;5069311;28;20687;-74
2021/01/05 01:09:33;;;;;;;16.53;12.03;;;2.80;99.90;;;;;;5069791;28;20651;-75
2021/01/05 01:12:06;;;;;;;17.27;11.43;;;2.70;99.90;;;;;;5070035;28;20260;-74
2021/01/05 01:14:34;;;;;;;12.60;10.37;;;2.70;99.90;;;;;;5070064;28;20217;-74
2021/01/05 01:17:01;;;;;;;16.57;11.97;;;2.50;99.90;;;;;;5069691;28;20224;-74
2021/01/05 01:19:27;;;;;;;16.50;10.73;;;2.50;99.90;;;;;;5069733;28;20213;-76
2021/01/05 01:21:55;;;;;;;16.53;11.33;;;2.50;99.90;;;;;;5069600;28;20570;-74
2021/01/05 01:24:24;;;;;;;16.97;11.97;;;2.50;99.90;;;;;;5070144;28;20209;-75
2021/01/05 01:26:51;;;;;;;15.07;12.10;;;2.60;99.90;;;;;;5069953;28;20204;-74
2021/01/05 01:29:18;;;;;;;16.10;12.37;;;2.60;99.90;;;;;;5070171;28;20217;-76
2021/01/05 01:31:45;;;;;;;14.43;11.27;;;2.60;99.90;;;;;;5069493;28;20575;-71
2021/01/05 01:34:12;;;;;;;15.67;11.97;;;2.60;99.90;;;;;;5069923;28;20237;-74
2021/01/05 01:36:38;;;;;;;18.30;12.47;;;2.60;99.90;;;;;;5069585;28;20217;-71
2021/01/05 01:39:07;;;;;;;18.63;11.93;;;2.60;99.90;;;;;;5069192;28;20202;-71
2021/01/05 01:41:34;;;;;;;17.50;12.73;;;2.60;99.90;;;;;;5070210;28;20210;-76
2021/01/05 01:44:00;;;;;;;27.63;18.50;;;2.60;99.90;;;;;;5069053;28;20236;-77
2021/01/05 01:46:34;;;;;;;21.10;12.07;;;2.50;99.90;;;;;;5070041;28;20209;-78
2021/01/05 01:49:02;;;;;;;19.77;12.80;;;2.40;99.90;;;;;;5070467;28;20209;-73
2021/01/05 01:51:33;;;;;;;14.53;10.87;;;2.30;99.90;;;;;;5073320;28;20617;-78
2021/01/05 01:54:14;;;;;;;14.87;10.40;;;2.30;99.90;;;;;;5072552;28;20686;-75
2021/01/05 01:57:19;;;;;;;15.33;11.03;;;2.40;99.90;;;;;;5073635;28;20206;-71
2021/01/05 02:00:08;;;;;;;15.83;11.47;;;2.50;99.90;;;;;;5072944;28;20241;-70
2021/01/05 02:02:52;;;;;;;15.83;10.63;;;2.60;99.90;;;;;;5072941;28;20678;-78
2021/01/05 02:05:27;;;;;;;15.33;10.27;;;2.50;99.90;;;;;;5072972;28;20209;-76
2021/01/05 02:08:17;;;;;;;14.03;11.07;;;2.50;99.90;;;;;;5072307;28;20202;-72
2021/01/05 02:10:53;;;;;;;16.00;11.17;;;2.40;99.90;;;;;;5073231;28;20212;-70
2021/01/05 02:13:34;;;;;;;13.60;11.07;;;2.40;99.90;;;;;;5072907;28;20236;-74
2021/01/05 02:16:15;;;;;;;15.13;10.67;;;2.50;99.90;;;;;;5072164;28;20701;-72
2021/01/05 02:18:45;;;;;;;13.07;9.03;;;2.40;99.90;;;;;;5073067;28;20206;-70
2021/01/05 02:21:22;;;;;;;15.37;11.60;;;2.40;99.90;;;;;;5073183;28;20237;-77
2021/01/05 02:24:07;;;;;;;15.13;9.97;;;2.40;99.90;;;;;;5072287;28;20206;-79
2021/01/05 02:26:41;;;;;;;11.40;9.73;;;2.40;99.90;;;;;;5072855;28;20543;-78
2021/01/05 02:29:13;;;;;;;15.33;10.13;;;2.60;99.90;;;;;;5072435;28;20202;-76
2021/01/05 02:31:46;;;;;;;13.40;10.13;;;2.60;99.90;;;;;;5072869;28;20221;-77
2021/01/05 02:34:24;;;;;;;14.50;10.43;;;2.60;99.90;;;;;;5072561;28;20237;-74
2021/01/05 02:37:10;;;;;;;15.93;10.50;;;2.60;99.90;;;;;;5071529;28;20213;-76
2021/01/05 02:40:23;;;;;;;16.40;10.33;;;2.60;99.90;;;;;;5072412;28;20566;-72
2021/01/05 02:43:09;;;;;;;13.10;9.93;;;2.50;99.90;;;;;;5059626;28;20211;-74
2021/01/05 02:45:38;;;;;;;13.77;9.07;;;2.60;99.90;;;;;;5072360;28;20217;-73
2021/01/05 02:48:28;;;;;;;13.93;10.30;;;2.50;99.90;;;;;;5071949;28;20208;-78
2021/01/05 02:51:36;;;;;;;15.37;10.47;;;2.60;99.90;;;;;;5071897;28;20214;-73
2021/01/05 02:54:19;;;;;;;13.13;10.47;;;2.70;99.90;;;;;;5071691;28;20206;-74
2021/01/05 02:57:10;;;;;;;12.50;9.60;;;2.80;99.90;;;;;;5071522;28;20685;-71
2021/01/05 03:00:05;;;;;;;11.83;8.57;;;2.80;99.90;;;;;;5071581;28;20216;-72
2021/01/05 03:03:19;;;;;;;13.40;8.57;;;2.80;99.90;;;;;;5071384;28;20202;-76
2021/01/05 03:05:47;;;;;;;13.20;9.37;;;2.80;99.90;;;;;;5071527;28;20209;-71
2021/01/05 03:08:16;;;;;;;13.43;9.30;;;2.80;99.90;;;;;;5071812;28;20256;-71
2021/01/05 03:10:51;;;;;;;12.57;8.60;;;2.90;99.90;;;;;;5072053;28;20738;-72
2021/01/05 03:13:33;;;;;;;13.67;9.50;;;2.80;99.90;;;;;;5058625;28;20208;-74
2021/01/05 03:16:07;;;;;;;11.73;8.83;;;2.80;99.90;;;;;;5070689;28;20265;-71
2021/01/05 03:18:43;;;;;;;13.60;9.80;;;2.70;99.90;;;;;;5071734;28;20555;-77
2021/01/05 03:21:17;;;;;;;10.87;7.93;;;2.70;99.90;;;;;;5071271;28;20198;-74
2021/01/05 03:23:46;;;;;;;12.43;9.40;;;2.70;99.90;;;;;;5071751;28;20212;-72
2021/01/05 03:26:16;;;;;;;13.30;10.30;;;2.60;99.90;;;;;;5071726;28;20206;-76
2021/01/05 03:28:43;;;;;;;12.63;9.40;;;2.70;99.90;;;;;;5072090;28;20209;-78
2021/01/05 03:31:16;;;;;;;11.43;8.57;;;2.70;99.90;;;;;;5071577;28;20238;-76
2021/01/05 03:33:43;;;;;;;14.50;9.77;;;2.70;99.90;;;;;;5071759;28;20213;-73
2021/01/05 03:36:12;;;;;;;13.00;9.60;;;2.70;99.90;;;;;;5063736;28;20279;-71
2021/01/05 03:38:38;;;;;;;12.77;8.40;;;2.70;99.90;;;;;;5071368;28;20577;-74
2021/01/05 03:41:05;;;;;;;13.30;9.23;;;2.80;99.90;;;;;;5070658;28;20245;-71
2021/01/05 03:43:31;;;;;;;13.67;10.23;;;2.70;99.90;;;;;;5070802;28;20209;-73
2021/01/05 03:45:58;;;;;;;13.47;8.83;;;2.70;99.90;;;;;;5070828;28;20275;-73
2021/01/05 03:48:25;;;;;;;11.93;10.33;;;2.70;99.90;;;;;;5070776;28;20217;-75
2021/01/05 03:50:51;;;;;;;10.53;8.97;;;2.80;99.90;;;;;;5070883;28;20287;-76
2021/01/05 03:53:18;;;;;;;10.90;9.27;;;2.90;99.90;;;;;;5070518;28;20665;-75
2021/01/05 03:55:44;;;;;;;15.47;9.63;;;2.90;99.90;;;;;;5070823;28;20272;-68
2021/01/05 03:58:11;;;;;;;14.03;9.37;;;3.00;99.90;;;;;;5071184;28;20217;-75
2021/01/05 04:00:37;;;;;;;13.80;9.93;;;3.00;99.90;;;;;;5070238;28;20625;-72
2021/01/05 04:03:04;;;;;;;12.10;9.13;;;3.00;99.90;;;;;;5070666;28;20263;-78
2021/01/05 04:05:31;;;;;;;14.10;10.77;;;2.90;99.90;;;;;;5070580;28;20697;-74
2021/01/05 04:07:58;;;;;;;13.80;9.27;;;2.80;99.90;;;;;;5070411;28;20241;-77
2021/01/05 04:10:24;;;;;;;12.83;9.63;;;2.70;99.90;;;;;;5070435;28;20692;-76
2021/01/05 04:12:51;;;;;;;12.07;9.87;;;2.60;99.90;;;;;;5069710;28;20696;-72
2021/01/05 04:15:20;;;;;;;12.47;10.10;;;2.70;99.90;;;;;;5070490;28;20247;-77
2021/01/05 04:17:46;;;;;;;12.17;9.17;;;2.70;99.90;;;;;;5070103;28;20220;-73
2021/01/05 04:20:14;;;;;;;12.27;10.57;;;2.70;99.90;;;;;;5070756;28;20213;-77
2021/01/05 04:22:41;;;;;;;12.63;9.00;;;2.60;99.90;;;;;;5070997;28;20206;-76
2021/01/05 04:25:08;;;;;;;15.33;9.87;;;2.60;99.90;;;;;;5070084;28;20287;-74
2021/01/05 04:27:35;;;;;;;15.03;10.53;;;2.50;99.90;;;;;;5070655;28;20259;-78
2021/01/05 04:30:01;;;;;;;14.17;10.90;;;2.60;99.90;;;;;;5070304;28;20216;-76
2021/01/05 04:32:28;;;;;;;16.60;11.03;;;2.70;99.90;;;;;;5070523;28;20308;-76
2021/01/05 04:34:54;;;;;;;14.20;10.83;;;2.60;99.90;;;;;;5070221;28;20303;-77
2021/01/05 04:37:21;;;;;;;12.20;9.70;;;2.70;99.90;;;;;;5070765;28;20209;-74
2021/01/05 04:39:48;;;;;;;13.43;10.23;;;2.70;99.90;;;;;;5069631;28;20267;-73
2021/01/05 04:42:21;;;;;;;13.03;9.30;;;2.80;99.90;;;;;;5070517;28;20209;-70
2021/01/05 04:44:55;;;;;;;13.07;9.03;;;2.80;99.90;;;;;;5069386;28;20205;-76
2021/01/05 04:47:35;;;;;;;10.67;9.03;;;2.80;99.90;;;;;;5070426;28;20552;-79
2021/01/05 04:50:12;;;;;;;12.10;9.07;;;2.70;99.90;;;;;;5070169;28;20198;-78
2021/01/05 04:52:49;;;;;;;10.93;8.87;;;2.70;99.90;;;;;;5071070;28;20221;-80
2021/01/05 04:55:39;;;;;;;12.80;8.73;;;2.70;99.90;;;;;;5070021;28;20617;-76
2021/01/05 04:58:11;;;;;;;14.23;9.30;;;2.60;99.90;;;;;;5069316;28;20568;-72
2021/01/05 05:00:39;;;;;;;11.47;8.47;;;2.60;99.90;;;;;;5069986;28;20684;-73
2021/01/05 05:03:14;;;;;;;13.40;9.33;;;2.60;99.90;;;;;;5069786;28;20669;-73
2021/01/05 05:05:54;;;;;;;13.50;9.63;;;2.40;99.90;;;;;;5057144;28;20208;-73
2021/01/05 05:08:29;;;;;;;11.17;9.33;;;2.40;99.90;;;;;;5069736;28;20670;-74
2021/01/05 05:11:01;;;;;;;11.77;10.03;;;2.50;99.90;;;;;;5069594;28;20210;-77
2021/01/05 05:13:36;;;;;;;12.27;9.17;;;2.40;99.90;;;;;;5069962;28;20205;-77
2021/01/05 05:16:13;;;;;;;13.43;9.77;;;2.40;99.90;;;;;;5069545;28;20240;-77
2021/01/05 05:18:55;;;;;;;14.13;9.50;;;2.40;99.90;;;;;;5070292;28;20203;-71
2021/01/05 05:21:38;;;;;;;14.23;11.03;;;2.50;99.90;;;;;;5069955;28;20206;-76
2021/01/05 05:24:16;;;;;;;13.37;10.53;;;2.60;99.90;;;;;;5072454;28;20693;-76
2021/01/05 05:26:50;;;;;;;16.90;10.63;;;2.50;99.90;;;;;;5073942;28;20206;-68
2021/01/05 05:29:35;;;;;;;12.87;10.00;;;2.50;99.90;;;;;;5073635;28;20208;-71
2021/01/05 05:32:09;;;;;;;14.03;9.53;;;2.40;99.90;;;;;;5070588;28;20665;-72
2021/01/05 05:34:50;;;;;;;13.53;10.23;;;2.40;99.90;;;;;;5073445;28;20225;-74
2021/01/05 05:37:26;;;;;;;14.63;10.27;;;2.30;99.90;;;;;;5072875;28;20210;-70
2021/01/05 05:40:05;;;;;;;13.93;10.83;;;2.40;99.90;;;;;;5073153;28;20218;-74
2021/01/05 05:42:53;;;;;;;14.60;10.90;;;2.50;99.90;;;;;;5072818;28;20686;-74
2021/01/05 05:45:25;;;;;;;13.93;10.07;;;2.60;99.90;;;;;;5037927;28;20206;-77
2021/01/05 05:47:56;;;;;;;14.10;10.63;;;2.70;99.90;;;;;;5072828;28;20218;-71
2021/01/05 05:50:27;;;;;;;14.27;11.20;;;2.50;99.90;;;;;;5073265;28;20232;-72
2021/01/05 05:52:57;;;;;;;17.80;11.07;;;2.30;99.90;;;;;;5073024;28;20285;-71
2021/01/05 05:55:41;;;;;;;14.93;11.20;;;2.50;99.90;;;;;;5059020;28;20222;-73
2021/01/05 05:58:11;;;;;;;18.13;13.20;;;2.60;99.90;;;;;;5072341;28;20659;-73
2021/01/05 06:00:41;;;;;;;19.27;13.80;;;2.40;99.90;;;;;;5073089;28;20213;-72
2021/01/05 06:03:12;;;;;;;19.17;14.40;;;2.50;99.90;;;;;;5072441;28;20676;-73
2021/01/05 06:05:39;;;;;;;18.07;13.27;;;2.60;99.90;;;;;;5072788;28;20256;-71
2021/01/05 06:08:08;;;;;;;14.40;10.07;;;2.60;99.90;;;;;;5072643;28;20512;-74
2021/01/05 06:10:35;;;;;;;15.10;11.17;;;2.50;99.90;;;;;;5072575;28;20215;-75
2021/01/05 06:13:01;;;;;;;15.17;10.30;;;2.60;99.90;;;;;;5072460;28;20242;-75
2021/01/05 06:15:33;;;;;;;16.60;11.33;;;2.60;99.90;;;;;;5072089;28;20308;-76
2021/01/05 06:17:59;;;;;;;14.47;9.93;;;2.40;99.90;;;;;;5072380;28;20776;-76
2021/01/05 06:20:26;;;;;;;17.57;11.33;;;2.30;99.90;;;;;;5072700;28;20210;-73
2021/01/05 06:22:52;;;;;;;15.67;10.63;;;2.30;99.90;;;;;;5072677;28;20210;-76
2021/01/05 06:25:19;;;;;;;15.20;10.93;;;2.30;99.90;;;;;;5072336;28;20575;-75
2021/01/05 06:27:45;;;;;;;16.27;11.50;;;2.30;99.90;;;;;;5072654;28;20213;-75
2021/01/05 06:30:12;;;;;;;14.17;11.10;;;2.30;99.90;;;;;;5072497;28;20206;-74
2021/01/05 06:32:40;;;;;;;16.17;11.60;;;2.30;99.90;;;;;;5072484;28;20217;-75
2021/01/05 06:35:08;;;;;;;17.03;12.17;;;2.20;99.90;;;;;;5071330;28;20740;-77
2021/01/05 06:37:34;;;;;;;18.83;13.50;;;2.20;99.90;;;;;;5072456;28;20581;-76
2021/01/05 06:40:01;;;;;;;18.17;11.93;;;2.30;99.90;;;;;;5071919;28;20213;-75
2021/01/05 06:42:27;;;;;;;16.77;11.87;;;2.20;99.90;;;;;;5072319;28;20213;-75
2021/01/05 06:44:53;;;;;;;15.47;12.33;;;2.20;99.90;;;;;;5071583;28;20257;-75
2021/01/05 06:47:20;;;;;;;15.87;11.83;;;2.10;99.90;;;;;;5072560;28;20206;-76
2021/01/05 06:49:47;;;;;;;18.90;12.67;;;2.10;99.90;;;;;;5072047;28;20209;-80
2021/01/05 06:52:14;;;;;;;21.10;12.57;;;2.10;99.90;;;;;;5072599;28;20207;-78
2021/01/05 06:54:40;;;;;;;17.93;13.53;;;2.10;99.90;;;;;;5072301;28;20393;-77
2021/01/05 06:57:06;;;;;;;15.93;11.97;;;2.20;99.90;;;;;;5071885;28;20205;-77
2021/01/05 06:59:33;;;;;;;19.43;11.93;;;2.30;99.90;;;;;;5071916;28;20651;-77
2021/01/05 07:02:02;;;;;;;16.40;12.13;;;2.50;99.90;;;;;;5071522;28;20205;-75
2021/01/05 07:04:29;;;;;;;17.60;12.40;;;2.60;99.90;;;;;;5072317;28;20241;-81
2021/01/05 07:06:57;;;;;;;14.77;12.33;;;2.60;99.90;;;;;;5071923;28;20256;-81
2021/01/05 07:09:24;;;;;;;15.13;10.60;;;2.30;99.90;;;;;;5071977;28;20202;-83
2021/01/05 07:11:51;;;;;;;13.00;11.17;;;2.20;99.90;;;;;;5071320;28;20233;-82
2021/01/05 07:14:20;;;;;;;17.10;13.00;;;2.30;99.90;;;;;;5071860;28;20686;-78
2021/01/05 07:16:47;;;;;;;15.40;11.43;;;2.30;99.90;;;;;;5071465;28;20256;-79
2021/01/05 07:19:14;;;;;;;18.17;12.03;;;2.40;99.90;;;;;;5072180;28;20197;-81
2021/01/05 07:21:40;;;;;;;16.67;12.93;;;2.50;99.90;;;;;;5071908;28;20206;-79
2021/01/05 07:24:09;;;;;;;18.03;11.20;;;2.40;99.90;;;;;;5070786;28;20202;-79
2021/01/05 07:26:36;;;;;;;17.30;12.07;;;2.40;99.90;;;;;;5071455;28;20733;-76
2021/01/05 07:29:03;;;;;;;19.40;12.13;;;2.30;99.90;;;;;;5070762;28;20211;-75
2021/01/05 07:31:30;;;;;;;16.83;12.57;;;2.20;99.90;;;;;;5071664;28;20249;-75
2021/01/05 07:33:56;;;;;;;17.60;11.47;;;2.10;99.90;;;;;;5070842;28;20214;-74
2021/01/05 07:36:27;;;;;;;18.83;12.70;;;2.20;99.90;;;;;;5071393;28;20272;-79
2021/01/05 07:38:53;;;;;;;17.40;11.87;;;2.20;99.90;;;;;;5070738;28;20207;-77
2021/01/05 07:41:21;;;;;;;20.07;13.93;;;2.20;99.90;;;;;;5071388;28;20198;-78
2021/01/05 07:43:48;;;;;;;20.60;13.10;;;2.20;99.90;;;;;;5070908;28;20210;-71
2021/01/05 07:46:15;;;;;;;18.00;12.53;;;2.10;99.90;;;;;;5069918;28;20328;-74
2021/01/05 07:48:42;;;;;;;18.73;13.23;;;2.10;99.90;;;;;;5071226;28;20696;-75
2021/01/05 07:51:09;;;;;;;17.07;13.83;;;2.00;99.90;;;;;;5070972;28;20224;-74
2021/01/05 07:53:36;;;;;;;18.90;14.03;;;2.00;99.90;;;;;;5070566;28;20205;-81
2021/01/05 07:56:03;;;;;;;19.80;14.30;;;2.10;99.90;;;;;;5070976;28;20237;-78
2021/01/05 07:58:30;;;;;;;19.27;13.80;;;2.20;99.90;;;;;;5070868;28;20684;-80
2021/01/05 08:00:56;;;;;;;19.73;14.77;;;2.20;99.90;;;;;;5070854;28;20210;-81
2021/01/05 08:03:23;;;;;;;18.57;13.20;;;2.10;99.90;;;;;;5071039;28;20206;-75
2021/01/05 08:05:49;;;;;;;19.97;12.27;;;2.10;99.90;;;;;;5070243;28;20213;-74
2021/01/05 08:08:16;;;;;;;15.43;11.63;;;2.00;99.90;;;;;;5070856;28;20271;-80
2021/01/05 08:10:42;;;;;;;18.43;11.50;;;2.00;99.90;;;;;;5071396;28;20210;-79
2021/01/05 08:13:10;;;;;;;17.17;11.60;;;2.10;99.90;;;;;;5070727;28;20217;-74
2021/01/05 08:15:38;;;;;;;16.43;12.00;;;2.10;99.90;;;;;;5070784;28;20237;-76
2021/01/05 08:18:07;;;;;;;20.80;12.97;;;2.10;99.90;;;;;;5070468;28;20278;-77
2021/01/05 08:20:34;;;;;;;20.93;12.97;;;2.10;99.90;;;;;;5070227;28;20216;-72
2021/01/05 08:23:03;;;;;;;21.57;12.77;;;2.10;99.90;;;;;;5070449;28;20210;-76
2021/01/05 08:25:31;;;;;;;26.93;13.23;;;2.10;99.90;;;;;;5070602;28;20244;-79
2021/01/05 08:27:58;;;;;;;20.67;13.73;;;2.10;99.90;;;;;;5070196;28;20413;-80
2021/01/05 08:30:27;;;;;;;18.83;13.70;;;2.10;99.90;;;;;;5061241;28;20202;-74
2021/01/05 08:32:58;;;;;;;17.97;13.30;;;2.00;99.90;;;;;;5064550;28;20632;-81
2021/01/05 08:35:25;;;;;;;20.43;13.53;;;2.00;99.90;;;;;;5070517;28;20230;-81
2021/01/05 08:37:52;;;;;;;23.40;13.90;;;2.00;99.90;;;;;;5057406;28;20224;-81
2021/01/05 08:40:23;;;;;;;23.23;13.90;;;2.20;99.90;;;;;;5062104;28;20220;-77
2021/01/05 08:42:49;;;;;;;18.80;12.40;;;2.30;99.90;;;;;;5068554;28;20224;-80
2021/01/05 08:45:16;;;;;;;19.53;11.67;;;2.40;99.90;;;;;;5070437;28;20202;-74
2021/01/05 08:47:42;;;;;;;22.50;13.53;;;2.40;99.90;;;;;;5067148;28;20237;-78
2021/01/05 08:50:16;;;;;;;23.70;16.33;;;2.30;99.90;;;;;;5069752;28;20247;-73
2021/01/05 08:52:43;;;;;;;17.77;12.73;;;2.30;99.90;;;;;;5065439;28;20260;-75
2021/01/05 08:55:10;;;;;;;21.30;13.17;;;2.60;99.90;;;;;;5066170;28;20272;-69
2021/01/05 08:57:36;;;;;;;20.73;13.30;;;2.70;99.90;;;;;;5061748;28;20213;-73
2021/01/05 09:00:04;;;;;;;21.67;12.17;;;2.60;99.90;;;;;;5065647;28;20708;-70
2021/01/05 09:02:31;;;;;;;21.10;12.80;;;2.60;99.90;;;;;;5073322;28;20246;-74
2021/01/05 09:04:57;;;;;;;19.73;13.87;;;2.70;99.90;;;;;;5073487;28;20231;-75
2021/01/05 09:07:24;;;;;;;18.80;13.10;;;2.90;99.90;;;;;;5074183;28;20210;-76
2021/01/05 09:09:51;;;;;;;18.60;13.40;;;3.00;99.90;;;;;;5073742;28;20204;-72
2021/01/05 09:12:18;;;;;;;18.20;13.60;;;3.10;99.90;;;;;;5074026;28;20625;-73
2021/01/05 09:14:45;;;;;;;16.87;12.70;;;3.20;99.90;;;;;;5074056;28;20236;-72
2021/01/05 09:17:11;;;;;;;16.30;12.27;;;3.30;99.90;;;;;;5074159;28;20266;-72
2021/01/05 09:19:39;;;;;;;16.50;13.90;;;3.30;99.90;;;;;;5072946;28;20210;-77
2021/01/05 09:22:06;;;;;;;18.07;12.90;;;3.40;99.90;;;;;;5073395;28;20339;-79
2021/01/05 09:24:34;;;;;;;17.97;13.47;;;3.40;99.90;;;;;;5073741;28;20681;-77
2021/01/05 09:27:00;;;;;;;16.33;12.90;;;3.30;99.90;;;;;;5071067;28;20213;-72
2021/01/05 09:29:27;;;;;;;19.33;12.77;;;3.30;99.90;;;;;;5073342;28;20217;-73
2021/01/05 09:31:56;;;;;;;17.57;13.03;;;3.20;99.90;;;;;;5072444;28;20210;-75
2021/01/05 09:34:24;;;;;;;17.67;13.03;;;3.00;99.90;;;;;;5068340;28;20202;-77
2021/01/05 09:36:51;;;;;;;19.57;14.40;;;3.10;99.90;;;;;;5072921;28;20233;-74
2021/01/05 09:39:20;;;;;;;30.90;13.17;;;3.10;99.90;;;;;;5073522;28;20213;-77
2021/01/05 09:41:49;;;;;;;20.53;15.27;;;3.20;99.90;;;;;;5072847;28;20214;-75
2021/01/05 09:44:16;;;;;;;21.43;12.60;;;3.20;99.90;;;;;;5073332;28;20688;-77
2021/01/05 09:46:48;;;;;;;19.13;13.67;;;3.00;99.90;;;;;;5073529;28;20206;-74
2021/01/05 09:49:15;;;;;;;18.63;13.17;;;3.10;99.90;;;;;;5072277;28;20688;-76
2021/01/05 09:51:41;;;;;;;21.50;13.60;;;3.10;99.90;;;;;;5073627;28;20206;-77
2021/01/05 09:54:08;;;;;;;23.27;14.00;;;3.10;99.90;;;;;;5072870;28;20369;-77
2021/01/05 09:56:34;;;;;;;16.20;13.30;;;3.30;99.90;;;;;;5072928;28;20238;-76
2021/01/05 09:59:02;;;;;;;21.93;15.60;;;3.30;99.90;;;;;;5073124;28;20237;-76
2021/01/05 10:01:29;;;;;;;16.20;12.30;;;3.40;99.90;;;;;;5073446;28;20229;-75
2021/01/05 10:03:56;;;;;;;20.70;15.30;;;3.60;99.90;;;;;;5072631;28;20256;-75
2021/01/05 10:06:28;;;;;;;19.77;14.33;;;3.50;99.90;;;;;;5073029;28;20624;-77
2021/01/05 10:08:54;;;;;;;20.50;14.37;;;3.60;99.90;;;;;;5071940;28;20198;-75
2021/01/05 10:11:21;;;;;;;18.97;14.47;;;3.60;99.90;;;;;;5072701;28;20700;-76
2021/01/05 10:13:47;;;;;;;18.57;14.27;;;3.70;99.90;;;;;;5071767;28;20210;-74
2021/01/05 10:16:14;;;;;;;22.27;13.93;;;3.80;99.90;;;;;;5072974;28;20238;-71
2021/01/05 10:18:41;;;;;;;23.83;15.07;;;3.90;99.90;;;;;;5073223;28;20206;-76
2021/01/05 10:21:07;;;;;;;19.13;13.80;;;3.80;99.90;;;;;;5072580;28;20209;-77
2021/01/05 10:23:34;;;;;;;20.20;14.87;;;3.80;99.90;;;;;;5072725;28;20210;-78
2021/01/05 10:26:00;;;;;;;23.33;16.23;;;3.80;99.90;;;;;;5072624;28;20561;-72
2021/01/05 10:28:27;;;;;;;17.73;13.77;;;3.60;99.90;;;;;;5072952;28;20210;-72
2021/01/05 10:30:53;;;;;;;18.93;13.63;;;3.60;99.90;;;;;;5072123;28;20206;-75
2021/01/05 10:33:20;;;;;;;30.73;19.90;;;3.60;99.90;;;;;;5072793;28;20206;-76
2021/01/05 10:35:48;;;;;;;19.93;14.93;;;3.70;99.90;;;;;;5072162;28;20709;-73
2021/01/05 10:38:15;;;;;;;27.53;19.83;;;3.70;99.90;;;;;;5072520;28;20293;-71
2021/01/05 10:40:41;;;;;;;19.17;14.67;;;3.80;99.90;;;;;;5072932;28;20206;-75
2021/01/05 10:43:07;;;;;;;21.60;14.47;;;3.80;99.90;;;;;;5072045;28;20214;-75
2021/01/05 10:45:34;;;;;;;21.10;15.80;;;3.70;99.90;;;;;;5071326;28;20622;-76
2021/01/05 10:48:00;;;;;;;21.73;14.30;;;3.70;99.90;;;;;;5071739;28;20206;-75
2021/01/05 10:50:28;;;;;;;23.70;15.30;;;3.60;99.90;;;;;;5072126;28;20229;-75
2021/01/05 10:52:54;;;;;;;18.80;13.27;;;3.60;99.90;;;;;;5071864;28;20209;-76
2021/01/05 10:55:21;;;;;;;18.87;12.90;;;3.60;99.90;;;;;;5072187;28;20234;-76
2021/01/05 10:57:49;;;;;;;18.67;14.00;;;3.80;99.90;;;;;;5071768;28;20249;-76
2021/01/05 11:00:17;;;;;;;20.97;13.67;;;3.90;99.90;;;;;;5071625;28;20202;-77
2021/01/05 11:02:44;;;;;;;23.23;13.20;;;3.80;99.90;;;;;;5072166;28;20585;-74
2021/01/05 11:05:14;;;;;;;17.13;13.27;;;3.70;99.90;;;;;;5071875;28;20209;-77
2021/01/05 11:07:41;;;;;;;18.97;16.13;;;3.60;99.90;;;;;;5072376;28;20206;-75
2021/01/05 11:10:10;;;;;;;19.30;15.93;;;3.80;99.90;;;;;;5071201;28;20206;-74
2021/01/05 11:12:37;;;;;;;35.23;25.03;;;4.00;99.90;;;;;;5069772;28;20246;-76
2021/01/05 11:15:05;;;;;;;23.37;15.80;;;4.00;99.90;;;;;;5071187;28;20231;-75
2021/01/05 11:17:32;;;;;;;18.60;15.23;;;4.00;99.90;;;;;;5059649;28;20240;-75
2021/01/05 11:19:58;;;;;;;24.27;17.37;;;4.20;99.90;;;;;;5071332;28;20206;-77
2021/01/05 11:22:25;;;;;;;18.87;14.23;;;4.40;99.90;;;;;;5071287;28;20198;-74
2021/01/05 11:24:52;;;;;;;19.93;14.70;;;4.70;99.90;;;;;;5069967;28;20237;-75
2021/01/05 11:27:19;;;;;;;21.23;15.63;;;4.80;99.90;;;;;;5071145;28;20210;-76
2021/01/05 11:29:47;;;;;;;22.47;16.57;;;4.80;99.90;;;;;;5065401;28;20202;-71
2021/01/05 11:32:15;;;;;;;68.97;33.70;;;4.70;99.90;;;;;;5071173;28;20650;-72
2021/01/05 11:34:42;;;;;;;19.80;15.83;;;4.70;99.90;;;;;;5071377;28;20213;-77
2021/01/05 11:37:11;;;;;;;36.53;22.57;;;4.70;99.90;;;;;;5071093;28;20277;-76
2021/01/05 11:39:39;;;;;;;73.03;40.20;;;4.60;99.90;;;;;;5066512;28;20566;-74
2021/01/05 11:42:07;;;;;;;36.50;23.17;;;4.40;99.90;;;;;;5069882;28;20216;-72
2021/01/05 11:44:34;;;;;;;32.00;20.73;;;4.20;99.90;;;;;;5070371;28;20704;-75
2021/01/05 11:47:00;;;;;;;25.00;17.63;;;4.10;99.90;;;;;;5059606;28;20214;-74
2021/01/05 11:49:27;;;;;;;45.17;24.63;;;3.90;99.90;;;;;;5071164;28;20619;-77
2021/01/05 11:51:56;;;;;;;27.53;17.47;;;3.70;99.90;;;;;;5070324;28;20213;-71
2021/01/05 11:54:23;;;;;;;22.33;14.33;;;3.70;99.90;;;;;;5070901;28;20248;-75
2021/01/05 11:56:49;;;;;;;18.27;11.73;;;3.70;99.90;;;;;;5060476;28;20234;-75
2021/01/05 11:59:17;;;;;;;19.57;14.27;;;3.80;99.90;;;;;;5070742;28;20637;-77
2021/01/05 12:01:43;;;;;;;20.73;13.47;;;3.70;99.90;;;;;;5065179;28;20206;-69
2021/01/05 12:04:12;;;;;;;17.80;12.27;;;3.80;99.90;;;;;;5071231;28;20248;-75
2021/01/05 12:06:38;;;;;;;14.87;11.67;;;3.70;99.90;;;;;;5070722;28;20221;-75
2021/01/05 12:09:08;;;;;;;14.37;10.67;;;3.70;99.90;;;;;;5069478;28;20252;-74
2021/01/05 12:11:36;;;;;;;15.20;10.57;;;3.80;99.90;;;;;;5070673;28;20266;-77
2021/01/05 12:14:04;;;;;;;15.90;11.03;;;3.80;99.90;;;;;;5069692;28;20210;-72
2021/01/05 12:16:33;;;;;;;13.87;10.50;;;3.90;99.90;;;;;;5070446;28;20309;-75
2021/01/05 12:19:01;;;;;;;15.27;10.87;;;4.10;99.90;;;;;;5067214;28;20213;-76
2021/01/05 12:21:30;;;;;;;18.10;11.40;;;4.10;99.90;;;;;;5069899;28;20213;-73
2021/01/05 12:23:57;;;;;;;18.77;11.73;;;4.00;99.90;;;;;;5069982;28;20669;-73
2021/01/05 12:26:30;;;;;;;15.37;11.00;;;4.00;99.90;;;;;;5064503;28;20564;-72
2021/01/05 12:28:57;;;;;;;17.70;12.87;;;3.90;99.90;;;;;;5068969;28;20217;-71
2021/01/05 12:31:24;;;;;;;14.63;10.63;;;3.70;99.90;;;;;;5069368;28;20654;-76
2021/01/05 12:33:51;;;;;;;16.63;11.10;;;3.70;99.90;;;;;;5063684;28;20584;-72
2021/01/05 12:36:29;;;;;;;15.30;11.83;;;3.60;99.90;;;;;;5065597;28;20222;-70
2021/01/05 12:38:55;;;;;;;11.70;9.63;;;3.30;99.90;;;;;;5068120;28;20212;-69
2021/01/05 12:41:22;;;;;;;21.07;12.23;;;3.30;99.90;;;;;;5069988;28;20267;-75
2021/01/05 12:43:48;;;;;;;15.00;10.50;;;3.50;99.90;;;;;;5069772;28;20209;-73
2021/01/05 12:46:23;;;;;;;15.50;11.40;;;3.50;99.90;;;;;;5064827;28;20206;-73
2021/01/05 12:48:50;;;;;;;14.87;10.73;;;3.50;99.90;;;;;;5063352;28;20584;-75
2021/01/05 12:51:25;;;;;;;17.90;12.03;;;3.40;99.90;;;;;;5070105;28;20202;-72